sensor_id;sensor_type;location;lat;lon;timestamp;P1;durP1;ratioP1;P2;durP2;ratioP2
6517;SDS011;3292;48.944;9.240;2024-01-07T00:02:00;33.40;;;20.93;;
6517;SDS011;3292;48.944;9.240;2024-01-07T00:04:26;31.30;;;20.90;;
6517;SDS011;3292;48.944;9.240;2024-01-07T00:06:55;31.23;;;20.93;;
6517;SDS011;3292;48.944;9.240;2024-01-07T00:09:21;34.60;;;22.63;;
6517;SDS011;3292;48.944;9.240;2024-01-07T00:11:48;32.00;;;21.83;;
6517;SDS011;3292;48.944;9.240;2024-01-07T00:14:15;31.77;;;22.67;;
6517;SDS011;3292;48.944;9.240;2024-01-07T00:16:42;30.73;;;21.33;;
6517;SDS011;3292;48.944;9.240;2024-01-07T00:19:09;30.47;;;20.67;;
6517;SDS011;3292;48.944;9.240;2024-01-07T00:21:36;28.23;;;19.77;;
6517;SDS011;3292;48.944;9.240;2024-01-07T00:24:04;26.33;;;19.07;;
6517;SDS011;3292;48.944;9.240;2024-01-07T00:26:31;26.77;;;18.73;;
6517;SDS011;3292;48.944;9.240;2024-01-07T00:28:58;26.33;;;19.00;;
6517;SDS011;3292;48.944;9.240;2024-01-07T00:31:25;25.03;;;18.27;;
6517;SDS011;3292;48.944;9.240;2024-01-07T00:33:52;24.47;;;17.63;;
6517;SDS011;3292;48.944;9.240;2024-01-07T00:36:19;22.40;;;17.57;;
6517;SDS011;3292;48.944;9.240;2024-01-07T00:38:46;22.63;;;16.90;;
6517;SDS011;3292;48.944;9.240;2024-01-07T00:41:14;23.83;;;17.30;;
6517;SDS011;3292;48.944;9.240;2024-01-07T00:43:41;21.43;;;17.10;;
6517;SDS011;3292;48.944;9.240;2024-01-07T00:46:08;24.07;;;17.37;;
6517;SDS011;3292;48.944;9.240;2024-01-07T00:48:35;23.80;;;17.50;;
6517;SDS011;3292;48.944;9.240;2024-01-07T00:51:02;23.87;;;17.77;;
6517;SDS011;3292;48.944;9.240;2024-01-07T00:53:29;24.10;;;17.80;;
6517;SDS011;3292;48.944;9.240;2024-01-07T00:55:56;23.23;;;17.53;;
6517;SDS011;3292;48.944;9.240;2024-01-07T00:58:25;27.57;;;18.17;;
6517;SDS011;3292;48.944;9.240;2024-01-07T01:00:52;25.00;;;18.90;;
6517;SDS011;3292;48.944;9.240;2024-01-07T01:03:19;27.77;;;19.47;;
6517;SDS011;3292;48.944;9.240;2024-01-07T01:05:46;25.10;;;18.00;;
6517;SDS011;3292;48.944;9.240;2024-01-07T01:08:13;27.70;;;19.37;;
6517;SDS011;3292;48.944;9.240;2024-01-07T01:10:39;28.00;;;19.10;;
6517;SDS011;3292;48.944;9.240;2024-01-07T01:13:06;28.90;;;20.53;;
6517;SDS011;3292;48.944;9.240;2024-01-07T01:15:34;29.57;;;19.40;;
6517;SDS011;3292;48.944;9.240;2024-01-07T01:18:01;26.80;;;19.30;;
6517;SDS011;3292;48.944;9.240;2024-01-07T01:20:28;29.60;;;20.40;;
6517;SDS011;3292;48.944;9.240;2024-01-07T01:22:55;26.87;;;20.37;;
6517;SDS011;3292;48.944;9.240;2024-01-07T01:25:22;27.83;;;18.67;;
6517;SDS011;3292;48.944;9.240;2024-01-07T01:27:49;29.63;;;20.30;;
6517;SDS011;3292;48.944;9.240;2024-01-07T01:30:15;26.87;;;19.33;;
6517;SDS011;3292;48.944;9.240;2024-01-07T01:32:44;27.17;;;20.53;;
6517;SDS011;3292;48.944;9.240;2024-01-07T01:35:11;31.57;;;22.50;;
6517;SDS011;3292;48.944;9.240;2024-01-07T01:37:37;32.17;;;22.13;;
6517;SDS011;3292;48.944;9.240;2024-01-07T01:40:04;31.43;;;22.67;;
6517;SDS011;3292;48.944;9.240;2024-01-07T01:42:32;33.47;;;22.40;;
6517;SDS011;3292;48.944;9.240;2024-01-07T01:44:59;34.60;;;23.50;;
6517;SDS011;3292;48.944;9.240;2024-01-07T01:47:27;32.00;;;22.30;;
6517;SDS011;3292;48.944;9.240;2024-01-07T01:49:55;33.07;;;23.63;;
6517;SDS011;3292;48.944;9.240;2024-01-07T01:52:23;31.57;;;21.70;;
6517;SDS011;3292;48.944;9.240;2024-01-07T01:54:50;33.00;;;22.13;;
6517;SDS011;3292;48.944;9.240;2024-01-07T01:57:19;38.07;;;24.17;;
6517;SDS011;3292;48.944;9.240;2024-01-07T01:59:48;28.33;;;21.33;;
6517;SDS011;3292;48.944;9.240;2024-01-07T02:02:15;32.23;;;22.93;;
6517;SDS011;3292;48.944;9.240;2024-01-07T02:04:42;30.13;;;22.20;;
6517;SDS011;3292;48.944;9.240;2024-01-07T02:07:10;31.10;;;21.93;;
6517;SDS011;3292;48.944;9.240;2024-01-07T02:09:37;30.70;;;23.37;;
6517;SDS011;3292;48.944;9.240;2024-01-07T02:12:05;31.20;;;22.07;;
6517;SDS011;3292;48.944;9.240;2024-01-07T02:14:36;28.53;;;21.63;;
6517;SDS011;3292;48.944;9.240;2024-01-07T02:17:03;31.53;;;22.60;;
6517;SDS011;3292;48.944;9.240;2024-01-07T02:19:30;27.77;;;21.37;;
6517;SDS011;3292;48.944;9.240;2024-01-07T02:21:57;31.67;;;22.17;;
6517;SDS011;3292;48.944;9.240;2024-01-07T02:24:25;28.90;;;21.10;;
6517;SDS011;3292;48.944;9.240;2024-01-07T02:26:52;27.40;;;20.10;;
6517;SDS011;3292;48.944;9.240;2024-01-07T02:29:19;27.63;;;21.20;;
6517;SDS011;3292;48.944;9.240;2024-01-07T02:31:46;28.03;;;20.73;;
6517;SDS011;3292;48.944;9.240;2024-01-07T02:34:13;26.37;;;20.67;;
6517;SDS011;3292;48.944;9.240;2024-01-07T02:36:40;24.67;;;19.43;;
6517;SDS011;3292;48.944;9.240;2024-01-07T02:39:06;23.33;;;19.80;;
6517;SDS011;3292;48.944;9.240;2024-01-07T02:41:34;25.13;;;18.60;;
6517;SDS011;3292;48.944;9.240;2024-01-07T02:44:01;28.57;;;20.87;;
6517;SDS011;3292;48.944;9.240;2024-01-07T02:46:29;26.93;;;20.27;;
6517;SDS011;3292;48.944;9.240;2024-01-07T02:48:57;25.53;;;18.50;;
6517;SDS011;3292;48.944;9.240;2024-01-07T02:51:23;23.87;;;18.87;;
6517;SDS011;3292;48.944;9.240;2024-01-07T02:53:50;20.77;;;17.80;;
6517;SDS011;3292;48.944;9.240;2024-01-07T02:56:17;26.90;;;19.77;;
6517;SDS011;3292;48.944;9.240;2024-01-07T02:58:45;24.00;;;18.80;;
6517;SDS011;3292;48.944;9.240;2024-01-07T03:01:12;22.47;;;17.47;;
6517;SDS011;3292;48.944;9.240;2024-01-07T03:03:39;23.97;;;19.53;;
6517;SDS011;3292;48.944;9.240;2024-01-07T03:06:05;24.00;;;19.40;;
6517;SDS011;3292;48.944;9.240;2024-01-07T03:08:33;23.87;;;18.37;;
6517;SDS011;3292;48.944;9.240;2024-01-07T03:11:03;23.40;;;19.43;;
6517;SDS011;3292;48.944;9.240;2024-01-07T03:13:31;23.50;;;17.80;;
6517;SDS011;3292;48.944;9.240;2024-01-07T03:15:59;23.70;;;18.13;;
6517;SDS011;3292;48.944;9.240;2024-01-07T03:18:26;25.97;;;18.00;;
6517;SDS011;3292;48.944;9.240;2024-01-07T03:20:53;23.50;;;18.83;;
6517;SDS011;3292;48.944;9.240;2024-01-07T03:23:20;21.47;;;17.53;;
6517;SDS011;3292;48.944;9.240;2024-01-07T03:25:47;23.97;;;17.47;;
6517;SDS011;3292;48.944;9.240;2024-01-07T03:28:19;24.90;;;17.00;;
6517;SDS011;3292;48.944;9.240;2024-01-07T03:30:46;23.87;;;18.47;;
6517;SDS011;3292;48.944;9.240;2024-01-07T03:33:14;20.50;;;17.47;;
6517;SDS011;3292;48.944;9.240;2024-01-07T03:35:41;24.63;;;17.50;;
6517;SDS011;3292;48.944;9.240;2024-01-07T03:38:08;22.43;;;16.03;;
6517;SDS011;3292;48.944;9.240;2024-01-07T03:40:34;23.90;;;17.47;;
6517;SDS011;3292;48.944;9.240;2024-01-07T03:43:01;21.53;;;16.47;;
6517;SDS011;3292;48.944;9.240;2024-01-07T03:45:28;23.80;;;17.47;;
6517;SDS011;3292;48.944;9.240;2024-01-07T03:47:56;21.47;;;16.43;;
6517;SDS011;3292;48.944;9.240;2024-01-07T03:50:24;20.83;;;16.03;;
6517;SDS011;3292;48.944;9.240;2024-01-07T03:52:51;21.90;;;15.70;;
6517;SDS011;3292;48.944;9.240;2024-01-07T03:55:18;19.97;;;17.03;;
6517;SDS011;3292;48.944;9.240;2024-01-07T03:57:44;21.93;;;15.60;;
6517;SDS011;3292;48.944;9.240;2024-01-07T04:00:11;25.27;;;15.90;;
6517;SDS011;3292;48.944;9.240;2024-01-07T04:02:38;21.23;;;16.33;;
6517;SDS011;3292;48.944;9.240;2024-01-07T04:05:05;22.07;;;15.60;;
6517;SDS011;3292;48.944;9.240;2024-01-07T04:07:35;20.17;;;15.93;;
6517;SDS011;3292;48.944;9.240;2024-01-07T04:10:02;22.20;;;15.90;;
6517;SDS011;3292;48.944;9.240;2024-01-07T04:12:29;20.57;;;15.80;;
6517;SDS011;3292;48.944;9.240;2024-01-07T04:14:56;18.63;;;14.53;;
6517;SDS011;3292;48.944;9.240;2024-01-07T04:17:23;20.17;;;15.13;;
6517;SDS011;3292;48.944;9.240;2024-01-07T04:19:51;19.97;;;14.13;;
6517;SDS011;3292;48.944;9.240;2024-01-07T04:22:18;19.73;;;14.30;;
6517;SDS011;3292;48.944;9.240;2024-01-07T04:24:46;19.63;;;14.43;;
6517;SDS011;3292;48.944;9.240;2024-01-07T04:27:13;17.50;;;12.97;;
6517;SDS011;3292;48.944;9.240;2024-01-07T04:29:40;19.93;;;13.83;;
6517;SDS011;3292;48.944;9.240;2024-01-07T04:32:06;19.87;;;14.57;;
6517;SDS011;3292;48.944;9.240;2024-01-07T04:34:33;16.70;;;12.77;;
6517;SDS011;3292;48.944;9.240;2024-01-07T04:37:00;17.93;;;12.93;;
6517;SDS011;3292;48.944;9.240;2024-01-07T04:39:27;16.63;;;12.67;;
6517;SDS011;3292;48.944;9.240;2024-01-07T04:41:55;15.83;;;12.37;;
6517;SDS011;3292;48.944;9.240;2024-01-07T04:44:22;15.63;;;11.77;;
6517;SDS011;3292;48.944;9.240;2024-01-07T04:46:48;15.73;;;11.83;;
6517;SDS011;3292;48.944;9.240;2024-01-07T04:49:15;18.03;;;12.83;;
6517;SDS011;3292;48.944;9.240;2024-01-07T04:51:42;17.20;;;12.43;;
6517;SDS011;3292;48.944;9.240;2024-01-07T04:54:09;17.77;;;13.00;;
6517;SDS011;3292;48.944;9.240;2024-01-07T04:56:35;17.37;;;12.37;;
6517;SDS011;3292;48.944;9.240;2024-01-07T04:59:04;19.63;;;13.23;;
6517;SDS011;3292;48.944;9.240;2024-01-07T05:01:32;18.73;;;13.33;;
6517;SDS011;3292;48.944;9.240;2024-01-07T05:03:59;18.77;;;12.77;;
6517;SDS011;3292;48.944;9.240;2024-01-07T05:06:26;17.97;;;12.27;;
6517;SDS011;3292;48.944;9.240;2024-01-07T05:08:52;17.60;;;12.80;;
6517;SDS011;3292;48.944;9.240;2024-01-07T05:11:19;18.87;;;12.70;;
6517;SDS011;3292;48.944;9.240;2024-01-07T05:13:46;18.97;;;13.20;;
6517;SDS011;3292;48.944;9.240;2024-01-07T05:16:19;16.87;;;12.77;;
6517;SDS011;3292;48.944;9.240;2024-01-07T05:18:45;17.63;;;13.13;;
6517;SDS011;3292;48.944;9.240;2024-01-07T05:21:13;17.13;;;12.30;;
6517;SDS011;3292;48.944;9.240;2024-01-07T05:23:40;14.70;;;12.13;;
6517;SDS011;3292;48.944;9.240;2024-01-07T05:26:07;17.03;;;13.07;;
6517;SDS011;3292;48.944;9.240;2024-01-07T05:28:34;17.13;;;12.60;;
6517;SDS011;3292;48.944;9.240;2024-01-07T05:31:02;16.07;;;11.17;;
6517;SDS011;3292;48.944;9.240;2024-01-07T05:33:30;16.10;;;11.73;;
6517;SDS011;3292;48.944;9.240;2024-01-07T05:35:57;16.03;;;12.03;;
6517;SDS011;3292;48.944;9.240;2024-01-07T05:38:24;17.03;;;12.10;;
6517;SDS011;3292;48.944;9.240;2024-01-07T05:40:51;18.20;;;12.67;;
6517;SDS011;3292;48.944;9.240;2024-01-07T05:43:18;17.43;;;12.10;;
6517;SDS011;3292;48.944;9.240;2024-01-07T05:45:44;15.30;;;12.13;;
6517;SDS011;3292;48.944;9.240;2024-01-07T05:48:11;15.03;;;10.93;;
6517;SDS011;3292;48.944;9.240;2024-01-07T05:50:39;15.70;;;11.93;;
6517;SDS011;3292;48.944;9.240;2024-01-07T05:53:06;15.33;;;12.23;;
6517;SDS011;3292;48.944;9.240;2024-01-07T05:55:33;15.90;;;12.40;;
6517;SDS011;3292;48.944;9.240;2024-01-07T05:58:00;12.00;;;10.43;;
6517;SDS011;3292;48.944;9.240;2024-01-07T06:00:27;14.60;;;11.87;;
6517;SDS011;3292;48.944;9.240;2024-01-07T06:02:54;13.80;;;11.43;;
6517;SDS011;3292;48.944;9.240;2024-01-07T06:05:20;12.73;;;11.03;;
6517;SDS011;3292;48.944;9.240;2024-01-07T06:07:49;11.47;;;10.30;;
6517;SDS011;3292;48.944;9.240;2024-01-07T06:10:15;14.20;;;10.27;;
6517;SDS011;3292;48.944;9.240;2024-01-07T06:12:42;14.30;;;11.10;;
6517;SDS011;3292;48.944;9.240;2024-01-07T06:15:09;11.97;;;10.17;;
6517;SDS011;3292;48.944;9.240;2024-01-07T06:17:36;14.07;;;10.33;;
6517;SDS011;3292;48.944;9.240;2024-01-07T06:20:03;12.20;;;10.20;;
6517;SDS011;3292;48.944;9.240;2024-01-07T06:22:30;13.87;;;10.90;;
6517;SDS011;3292;48.944;9.240;2024-01-07T06:24:59;11.20;;;10.00;;
6517;SDS011;3292;48.944;9.240;2024-01-07T06:27:26;11.07;;;9.97;;
6517;SDS011;3292;48.944;9.240;2024-01-07T06:29:52;10.97;;;9.83;;
6517;SDS011;3292;48.944;9.240;2024-01-07T06:32:19;11.13;;;9.93;;
6517;SDS011;3292;48.944;9.240;2024-01-07T06:34:46;11.30;;;9.83;;
6517;SDS011;3292;48.944;9.240;2024-01-07T06:37:14;9.80;;;8.83;;
6517;SDS011;3292;48.944;9.240;2024-01-07T06:39:41;10.53;;;8.67;;
6517;SDS011;3292;48.944;9.240;2024-01-07T06:42:09;10.20;;;8.57;;
6517;SDS011;3292;48.944;9.240;2024-01-07T06:44:36;11.03;;;9.17;;
6517;SDS011;3292;48.944;9.240;2024-01-07T06:47:03;9.77;;;8.40;;
6517;SDS011;3292;48.944;9.240;2024-01-07T06:49:29;7.80;;;6.67;;
6517;SDS011;3292;48.944;9.240;2024-01-07T06:51:56;8.50;;;6.93;;
6517;SDS011;3292;48.944;9.240;2024-01-07T06:54:23;7.37;;;6.57;;
6517;SDS011;3292;48.944;9.240;2024-01-07T06:56:50;8.33;;;7.00;;
6517;SDS011;3292;48.944;9.240;2024-01-07T06:59:19;7.90;;;6.90;;
6517;SDS011;3292;48.944;9.240;2024-01-07T07:01:45;8.20;;;7.00;;
6517;SDS011;3292;48.944;9.240;2024-01-07T07:04:12;8.93;;;6.20;;
6517;SDS011;3292;48.944;9.240;2024-01-07T07:06:39;7.13;;;6.43;;
6517;SDS011;3292;48.944;9.240;2024-01-07T07:09:06;8.87;;;6.87;;
6517;SDS011;3292;48.944;9.240;2024-01-07T07:11:33;7.67;;;6.97;;
6517;SDS011;3292;48.944;9.240;2024-01-07T07:13:59;8.03;;;6.87;;
6517;SDS011;3292;48.944;9.240;2024-01-07T07:16:27;8.60;;;7.20;;
6517;SDS011;3292;48.944;9.240;2024-01-07T07:18:54;7.47;;;6.43;;
6517;SDS011;3292;48.944;9.240;2024-01-07T07:21:21;7.17;;;6.40;;
6517;SDS011;3292;48.944;9.240;2024-01-07T07:23:48;7.33;;;6.50;;
6517;SDS011;3292;48.944;9.240;2024-01-07T07:26:15;7.20;;;6.50;;
6517;SDS011;3292;48.944;9.240;2024-01-07T07:28:41;11.60;;;6.40;;
6517;SDS011;3292;48.944;9.240;2024-01-07T07:31:10;7.37;;;6.17;;
6517;SDS011;3292;48.944;9.240;2024-01-07T07:33:39;7.93;;;6.57;;
6517;SDS011;3292;48.944;9.240;2024-01-07T07:36:06;8.37;;;6.87;;
6517;SDS011;3292;48.944;9.240;2024-01-07T07:38:33;7.17;;;6.37;;
6517;SDS011;3292;48.944;9.240;2024-01-07T07:41:00;7.27;;;6.57;;
6517;SDS011;3292;48.944;9.240;2024-01-07T07:43:27;7.60;;;6.40;;
6517;SDS011;3292;48.944;9.240;2024-01-07T07:45:54;7.10;;;6.23;;
6517;SDS011;3292;48.944;9.240;2024-01-07T07:48:21;9.33;;;6.63;;
6517;SDS011;3292;48.944;9.240;2024-01-07T07:50:49;6.90;;;6.07;;
6517;SDS011;3292;48.944;9.240;2024-01-07T07:53:16;8.07;;;6.43;;
6517;SDS011;3292;48.944;9.240;2024-01-07T07:55:43;8.40;;;6.33;;
6517;SDS011;3292;48.944;9.240;2024-01-07T07:58:10;7.87;;;6.17;;
6517;SDS011;3292;48.944;9.240;2024-01-07T08:00:37;7.83;;;7.03;;
6517;SDS011;3292;48.944;9.240;2024-01-07T08:03:04;7.53;;;6.83;;
6517;SDS011;3292;48.944;9.240;2024-01-07T08:05:31;6.57;;;5.97;;
6517;SDS011;3292;48.944;9.240;2024-01-07T08:07:59;7.37;;;6.67;;
6517;SDS011;3292;48.944;9.240;2024-01-07T08:10:26;7.57;;;6.87;;
6517;SDS011;3292;48.944;9.240;2024-01-07T08:12:53;6.93;;;6.33;;
6517;SDS011;3292;48.944;9.240;2024-01-07T08:15:20;7.77;;;6.33;;
6517;SDS011;3292;48.944;9.240;2024-01-07T08:17:47;7.00;;;6.17;;
6517;SDS011;3292;48.944;9.240;2024-01-07T08:20:15;5.70;;;5.10;;
6517;SDS011;3292;48.944;9.240;2024-01-07T08:22:42;5.90;;;5.07;;
6517;SDS011;3292;48.944;9.240;2024-01-07T08:25:10;6.40;;;4.13;;
6517;SDS011;3292;48.944;9.240;2024-01-07T08:27:37;4.30;;;3.83;;
6517;SDS011;3292;48.944;9.240;2024-01-07T08:30:04;4.73;;;4.30;;
6517;SDS011;3292;48.944;9.240;2024-01-07T08:32:31;4.93;;;4.53;;
6517;SDS011;3292;48.944;9.240;2024-01-07T08:34:58;5.27;;;4.50;;
6517;SDS011;3292;48.944;9.240;2024-01-07T08:37:25;4.70;;;4.17;;
6517;SDS011;3292;48.944;9.240;2024-01-07T08:39:52;5.40;;;4.70;;
6517;SDS011;3292;48.944;9.240;2024-01-07T08:42:20;5.97;;;4.67;;
6517;SDS011;3292;48.944;9.240;2024-01-07T08:44:47;7.37;;;5.80;;
6517;SDS011;3292;48.944;9.240;2024-01-07T08:47:14;7.80;;;5.97;;
6517;SDS011;3292;48.944;9.240;2024-01-07T08:49:41;8.10;;;6.63;;
6517;SDS011;3292;48.944;9.240;2024-01-07T08:52:08;7.10;;;5.80;;
6517;SDS011;3292;48.944;9.240;2024-01-07T08:54:35;7.10;;;5.90;;
6517;SDS011;3292;48.944;9.240;2024-01-07T08:57:02;6.80;;;6.07;;
6517;SDS011;3292;48.944;9.240;2024-01-07T08:59:30;7.20;;;6.10;;
6517;SDS011;3292;48.944;9.240;2024-01-07T09:01:57;6.60;;;5.93;;
6517;SDS011;3292;48.944;9.240;2024-01-07T09:04:24;7.57;;;5.97;;
6517;SDS011;3292;48.944;9.240;2024-01-07T09:06:51;7.70;;;6.50;;
6517;SDS011;3292;48.944;9.240;2024-01-07T09:09:18;7.93;;;6.57;;
6517;SDS011;3292;48.944;9.240;2024-01-07T09:11:45;7.03;;;6.33;;
6517;SDS011;3292;48.944;9.240;2024-01-07T09:14:12;9.13;;;6.57;;
6517;SDS011;3292;48.944;9.240;2024-01-07T09:16:40;8.10;;;6.20;;
6517;SDS011;3292;48.944;9.240;2024-01-07T09:19:07;8.57;;;6.73;;
6517;SDS011;3292;48.944;9.240;2024-01-07T09:21:34;8.23;;;7.03;;
6517;SDS011;3292;48.944;9.240;2024-01-07T09:24:01;7.87;;;7.07;;
6517;SDS011;3292;48.944;9.240;2024-01-07T09:26:28;11.03;;;8.33;;
6517;SDS011;3292;48.944;9.240;2024-01-07T09:28:55;9.87;;;7.70;;
6517;SDS011;3292;48.944;9.240;2024-01-07T09:31:22;6.63;;;5.93;;
6517;SDS011;3292;48.944;9.240;2024-01-07T09:33:50;6.10;;;5.50;;
6517;SDS011;3292;48.944;9.240;2024-01-07T09:36:17;7.07;;;5.90;;
6517;SDS011;3292;48.944;9.240;2024-01-07T09:38:44;6.40;;;5.80;;
6517;SDS011;3292;48.944;9.240;2024-01-07T09:41:11;7.03;;;6.03;;
6517;SDS011;3292;48.944;9.240;2024-01-07T09:43:38;7.67;;;5.73;;
6517;SDS011;3292;48.944;9.240;2024-01-07T09:46:04;6.97;;;6.27;;
6517;SDS011;3292;48.944;9.240;2024-01-07T09:48:31;6.90;;;6.00;;
6517;SDS011;3292;48.944;9.240;2024-01-07T09:51:00;6.27;;;5.67;;
6517;SDS011;3292;48.944;9.240;2024-01-07T09:53:30;5.70;;;5.00;;
6517;SDS011;3292;48.944;9.240;2024-01-07T09:56:01;5.73;;;5.10;;
6517;SDS011;3292;48.944;9.240;2024-01-07T09:58:33;5.63;;;5.13;;
6517;SDS011;3292;48.944;9.240;2024-01-07T10:01:00;5.23;;;4.73;;
6517;SDS011;3292;48.944;9.240;2024-01-07T10:03:29;5.77;;;4.93;;
6517;SDS011;3292;48.944;9.240;2024-01-07T10:05:56;6.00;;;5.40;;
6517;SDS011;3292;48.944;9.240;2024-01-07T10:08:24;5.20;;;4.70;;
6517;SDS011;3292;48.944;9.240;2024-01-07T10:10:51;5.33;;;4.73;;
6517;SDS011;3292;48.944;9.240;2024-01-07T10:13:19;5.30;;;4.80;;
6517;SDS011;3292;48.944;9.240;2024-01-07T10:15:48;6.63;;;5.97;;
6517;SDS011;3292;48.944;9.240;2024-01-07T10:18:15;5.30;;;4.80;;
6517;SDS011;3292;48.944;9.240;2024-01-07T10:20:42;5.43;;;4.93;;
6517;SDS011;3292;48.944;9.240;2024-01-07T10:23:09;5.80;;;5.27;;
6517;SDS011;3292;48.944;9.240;2024-01-07T10:25:37;5.17;;;4.67;;
6517;SDS011;3292;48.944;9.240;2024-01-07T10:28:04;6.07;;;5.20;;
6517;SDS011;3292;48.944;9.240;2024-01-07T10:30:31;7.00;;;5.47;;
6517;SDS011;3292;48.944;9.240;2024-01-07T10:32:58;6.53;;;5.43;;
6517;SDS011;3292;48.944;9.240;2024-01-07T10:35:27;5.93;;;5.33;;
6517;SDS011;3292;48.944;9.240;2024-01-07T10:37:58;6.00;;;5.40;;
6517;SDS011;3292;48.944;9.240;2024-01-07T10:40:26;5.53;;;5.03;;
6517;SDS011;3292;48.944;9.240;2024-01-07T10:42:56;5.20;;;4.70;;
6517;SDS011;3292;48.944;9.240;2024-01-07T10:45:24;6.27;;;5.67;;
6517;SDS011;3292;48.944;9.240;2024-01-07T10:47:54;6.30;;;5.57;;
6517;SDS011;3292;48.944;9.240;2024-01-07T10:50:22;6.60;;;5.90;;
6517;SDS011;3292;48.944;9.240;2024-01-07T10:52:50;6.13;;;5.57;;
6517;SDS011;3292;48.944;9.240;2024-01-07T10:55:18;6.00;;;5.40;;
6517;SDS011;3292;48.944;9.240;2024-01-07T10:57:48;5.87;;;5.30;;
6517;SDS011;3292;48.944;9.240;2024-01-07T11:00:17;6.43;;;5.83;;
6517;SDS011;3292;48.944;9.240;2024-01-07T11:02:50;6.07;;;5.40;;
6517;SDS011;3292;48.944;9.240;2024-01-07T11:05:23;5.13;;;4.63;;
6517;SDS011;3292;48.944;9.240;2024-01-07T11:07:57;5.40;;;4.90;;
6517;SDS011;3292;48.944;9.240;2024-01-07T11:10:31;5.77;;;5.03;;
6517;SDS011;3292;48.944;9.240;2024-01-07T11:13:05;5.70;;;5.10;;
6517;SDS011;3292;48.944;9.240;2024-01-07T11:18:20;6.57;;;5.20;;
6517;SDS011;3292;48.944;9.240;2024-01-07T11:20:47;6.47;;;5.47;;
6517;SDS011;3292;48.944;9.240;2024-01-07T11:25:58;5.63;;;5.13;;
6517;SDS011;3292;48.944;9.240;2024-01-07T11:28:44;5.93;;;5.33;;
6517;SDS011;3292;48.944;9.240;2024-01-07T11:31:13;6.97;;;6.30;;
6517;SDS011;3292;48.944;9.240;2024-01-07T11:33:41;6.63;;;5.93;;
6517;SDS011;3292;48.944;9.240;2024-01-07T11:36:10;6.70;;;6.00;;
6517;SDS011;3292;48.944;9.240;2024-01-07T11:38:38;6.73;;;6.03;;
6517;SDS011;3292;48.944;9.240;2024-01-07T11:41:07;7.10;;;6.40;;
6517;SDS011;3292;48.944;9.240;2024-01-07T11:43:37;7.40;;;6.40;;
6517;SDS011;3292;48.944;9.240;2024-01-07T11:46:04;6.93;;;6.23;;
6517;SDS011;3292;48.944;9.240;2024-01-07T11:48:32;7.73;;;6.93;;
6517;SDS011;3292;48.944;9.240;2024-01-07T11:50:59;7.87;;;6.77;;
6517;SDS011;3292;48.944;9.240;2024-01-07T11:53:26;7.97;;;7.03;;
6517;SDS011;3292;48.944;9.240;2024-01-07T11:55:54;7.77;;;6.97;;
6517;SDS011;3292;48.944;9.240;2024-01-07T11:58:20;7.97;;;6.83;;
6517;SDS011;3292;48.944;9.240;2024-01-07T12:00:47;8.73;;;7.57;;
6517;SDS011;3292;48.944;9.240;2024-01-07T12:03:15;8.13;;;6.53;;
6517;SDS011;3292;48.944;9.240;2024-01-07T12:05:43;8.00;;;7.20;;
6517;SDS011;3292;48.944;9.240;2024-01-07T12:08:10;8.37;;;7.20;;
6517;SDS011;3292;48.944;9.240;2024-01-07T12:10:37;8.27;;;7.47;;
6517;SDS011;3292;48.944;9.240;2024-01-07T12:13:04;7.83;;;6.80;;
6517;SDS011;3292;48.944;9.240;2024-01-07T12:15:31;7.83;;;6.83;;
6517;SDS011;3292;48.944;9.240;2024-01-07T12:17:59;9.03;;;7.70;;
6517;SDS011;3292;48.944;9.240;2024-01-07T12:20:26;10.13;;;8.33;;
6517;SDS011;3292;48.944;9.240;2024-01-07T12:22:56;8.17;;;7.33;;
6517;SDS011;3292;48.944;9.240;2024-01-07T12:25:24;9.60;;;8.13;;
6517;SDS011;3292;48.944;9.240;2024-01-07T12:27:51;8.90;;;8.00;;
6517;SDS011;3292;48.944;9.240;2024-01-07T12:30:23;9.37;;;8.30;;
6517;SDS011;3292;48.944;9.240;2024-01-07T12:32:51;9.30;;;7.73;;
6517;SDS011;3292;48.944;9.240;2024-01-07T12:35:18;9.53;;;8.57;;
6517;SDS011;3292;48.944;9.240;2024-01-07T12:37:45;9.97;;;8.33;;
6517;SDS011;3292;48.944;9.240;2024-01-07T12:40:15;7.90;;;7.20;;
6517;SDS011;3292;48.944;9.240;2024-01-07T12:42:41;8.87;;;7.97;;
6517;SDS011;3292;48.944;9.240;2024-01-07T12:45:11;8.73;;;7.80;;
6517;SDS011;3292;48.944;9.240;2024-01-07T12:47:39;8.73;;;7.57;;
6517;SDS011;3292;48.944;9.240;2024-01-07T12:50:07;9.80;;;8.77;;
6517;SDS011;3292;48.944;9.240;2024-01-07T12:52:35;9.03;;;8.13;;
6517;SDS011;3292;48.944;9.240;2024-01-07T12:55:03;9.53;;;7.87;;
6517;SDS011;3292;48.944;9.240;2024-01-07T12:57:32;8.77;;;7.90;;
6517;SDS011;3292;48.944;9.240;2024-01-07T12:59:59;8.20;;;7.33;;
6517;SDS011;3292;48.944;9.240;2024-01-07T13:02:26;8.10;;;7.30;;
6517;SDS011;3292;48.944;9.240;2024-01-07T13:04:53;10.13;;;7.80;;
6517;SDS011;3292;48.944;9.240;2024-01-07T13:07:20;9.20;;;7.63;;
6517;SDS011;3292;48.944;9.240;2024-01-07T13:09:48;9.03;;;8.13;;
6517;SDS011;3292;48.944;9.240;2024-01-07T13:12:15;9.17;;;8.23;;
6517;SDS011;3292;48.944;9.240;2024-01-07T13:14:43;11.13;;;8.30;;
6517;SDS011;3292;48.944;9.240;2024-01-07T13:17:12;7.47;;;6.70;;
6517;SDS011;3292;48.944;9.240;2024-01-07T13:19:39;8.80;;;7.77;;
6517;SDS011;3292;48.944;9.240;2024-01-07T13:22:06;8.20;;;7.40;;
6517;SDS011;3292;48.944;9.240;2024-01-07T13:24:34;9.63;;;8.03;;
6517;SDS011;3292;48.944;9.240;2024-01-07T13:27:01;9.23;;;8.10;;
6517;SDS011;3292;48.944;9.240;2024-01-07T13:29:28;9.67;;;8.37;;
6517;SDS011;3292;48.944;9.240;2024-01-07T13:31:57;10.40;;;8.73;;
6517;SDS011;3292;48.944;9.240;2024-01-07T13:34:24;9.50;;;8.43;;
6517;SDS011;3292;48.944;9.240;2024-01-07T13:36:50;11.33;;;9.70;;
6517;SDS011;3292;48.944;9.240;2024-01-07T13:39:17;11.17;;;9.60;;
6517;SDS011;3292;48.944;9.240;2024-01-07T13:41:46;10.73;;;9.63;;
6517;SDS011;3292;48.944;9.240;2024-01-07T13:44:13;10.20;;;8.97;;
6517;SDS011;3292;48.944;9.240;2024-01-07T13:46:43;10.57;;;8.43;;
6517;SDS011;3292;48.944;9.240;2024-01-07T13:49:12;9.93;;;8.87;;
6517;SDS011;3292;48.944;9.240;2024-01-07T13:51:39;9.53;;;8.53;;
6517;SDS011;3292;48.944;9.240;2024-01-07T13:54:06;10.67;;;9.57;;
6517;SDS011;3292;48.944;9.240;2024-01-07T13:56:35;11.37;;;9.40;;
6517;SDS011;3292;48.944;9.240;2024-01-07T13:59:03;11.77;;;10.10;;
6517;SDS011;3292;48.944;9.240;2024-01-07T14:01:29;11.50;;;9.40;;
6517;SDS011;3292;48.944;9.240;2024-01-07T14:03:57;10.73;;;9.57;;
6517;SDS011;3292;48.944;9.240;2024-01-07T14:06:25;9.43;;;8.43;;
6517;SDS011;3292;48.944;9.240;2024-01-07T14:08:52;10.20;;;9.10;;
6517;SDS011;3292;48.944;9.240;2024-01-07T14:13:46;10.27;;;9.17;;
6517;SDS011;3292;48.944;9.240;2024-01-07T14:16:12;9.07;;;8.17;;
6517;SDS011;3292;48.944;9.240;2024-01-07T14:18:39;10.27;;;8.93;;
6517;SDS011;3292;48.944;9.240;2024-01-07T14:21:06;9.50;;;8.50;;
6517;SDS011;3292;48.944;9.240;2024-01-07T14:23:35;11.03;;;8.80;;
6517;SDS011;3292;48.944;9.240;2024-01-07T14:26:02;9.27;;;8.37;;
6517;SDS011;3292;48.944;9.240;2024-01-07T14:28:29;11.30;;;8.90;;
6517;SDS011;3292;48.944;9.240;2024-01-07T14:30:56;9.87;;;8.77;;
6517;SDS011;3292;48.944;9.240;2024-01-07T14:33:24;9.50;;;8.30;;
6517;SDS011;3292;48.944;9.240;2024-01-07T14:35:50;9.47;;;8.47;;
6517;SDS011;3292;48.944;9.240;2024-01-07T14:38:17;10.33;;;8.93;;
6517;SDS011;3292;48.944;9.240;2024-01-07T14:40:45;9.27;;;7.77;;
6517;SDS011;3292;48.944;9.240;2024-01-07T14:43:12;10.03;;;8.10;;
6517;SDS011;3292;48.944;9.240;2024-01-07T14:45:39;7.53;;;6.73;;
6517;SDS011;3292;48.944;9.240;2024-01-07T14:48:06;7.80;;;7.00;;
6517;SDS011;3292;48.944;9.240;2024-01-07T14:50:33;8.37;;;7.07;;
6517;SDS011;3292;48.944;9.240;2024-01-07T14:53:00;8.53;;;6.87;;
6517;SDS011;3292;48.944;9.240;2024-01-07T14:55:27;9.27;;;7.37;;
6517;SDS011;3292;48.944;9.240;2024-01-07T14:57:56;8.37;;;7.47;;
6517;SDS011;3292;48.944;9.240;2024-01-07T15:00:24;8.37;;;7.57;;
6517;SDS011;3292;48.944;9.240;2024-01-07T15:02:51;10.60;;;7.87;;
6517;SDS011;3292;48.944;9.240;2024-01-07T15:05:17;8.33;;;7.40;;
6517;SDS011;3292;48.944;9.240;2024-01-07T15:07:44;9.33;;;7.87;;
6517;SDS011;3292;48.944;9.240;2024-01-07T15:10:14;9.20;;;8.20;;
6517;SDS011;3292;48.944;9.240;2024-01-07T15:12:43;9.70;;;8.07;;